Fort Liard, Canada
Current Conditions -  °F | °C
As of 10:00 PM on Monday 22 Dec 2014 (Local Time) from CYYE Reporting Station
Scattered Clouds Scattered Clouds  
Wind Chill: -19°   Ceiling: Unl
Heat Index: -14°   Visibility: 15mi
Dew Point: -15°   Wind: 5mph
Humidity: 92%   Direction: 180°S
Pressure: 29.94"   Gusts: NA
Location:  60.23°N, 123.48°W
Report Text: CYYE 230500Z 18004KT 15SM FEW040 SCT210 M14/M15 A2994 RMK SC2CI1 SLP173
Loading
Personal Weather Stations






























Interactive Weather Map New forecast layout! Learn more

10-Day Weather Forecast

Advertisements
Track Severe Weather on mobile